Mc Lean, Virginia
Current Conditions -  °F | °C
As of 8:52 AM on Sunday 23 Nov 2014 (Local Time) from KDCA Reporting Station
Broken Clouds Broken Clouds  
Wind Chill: 44°   Ceiling: 12000
Heat Index: 44°   Visibility: 10mi
Dew Point: 26°   Wind: 3mph
Humidity: 49%   Direction: 200°SSW
Pressure: 30.24"   Gusts: NA
Location:  38.9398°N, 77.1677°W
Report Text: KDCA 231352Z 20003KT 10SM BKN120 BKN250 07/M03 A3024 RMK AO2 SLP241 T00671033
Loading
Personal Weather Stations






























Interactive Weather Map New forecast layout! Learn more

10-Day Weather Forecast

Advertisements
Track Severe Weather on mobile